LTFE Airport Information

Runway Information
Runway 11 Length 9842 ft width 148 ft
Elevation 9 ft Threshold 0 ft Heading 107
Runway 29 Length 9842 ft Width 148 ft
Elevation 21 ft Threshold 0 ft Heading 287
Airport Frequencies
Type APP Name MENDERES A Frequency 119.5 MHZ
Type APP Name MENDERES A Frequency 119.775 MHZ
Type ATIS Name ATIS Frequency 128.5 MHZ
Type GND Name GND Frequency 121.95 MHZ
Type TWR Name TWR Frequency 120.5 MHZ
Airport Navaids
Type VOR-DME Name Milas Bodrum Frequency 116700 KHZ
Type NDB Name Milas Bodrum Frequency 389 KHZ
Type VOR-DME Name Kiyikislacik Frequency 113900 KHZ
Airport Weather Information & NOTAM
ADDS - METARS form results

(0928 UTC 23 July 2018)
 
METAR text: LTFE 230850Z 28011KT CAVOK 35/13 Q1005 NOSIG RMK RWY10 26013KT
Conditions at: LTFE (BODRUM MILAS , TR) observed 0850 UTC 23 July 2018
Temperature: 35.0°C (95°F)
Dewpoint: 13.0°C (55°F) [RH = 27%]
Pressure (altimeter): 29.68 inches Hg (1005.0 mb)
Winds: from the W (280 degrees) at 13 MPH (11 knots; 5.7 m/s)
Visibility: 6 or more miles (10+ km)
Ceiling: ceiling and visibility are OK
Clouds: unknown
Weather: no significant weather observed at this time